Terminal Aerodrome Forecast
Issued by NWS Pendleton, OR

Home | Current Version | Previous Version | Text Only | Print | Product List | Glossary On
Versions: 1 2 3 4 5 6 7 8 9 10 11 12 13
851
FTUS46 KPDT 262341
TAFPDT
TAF
KPDT 262341Z 2700/2724 34007KT P6SM SCT250
     FM270400 15007KT P6SM SCT200
     FM271700 31007KT P6SM SKC
     FM271800 28020G30KT P6SM SCT250=

USA.gov is the U.S. government's official web portal to all federal, state and local government web resources and services.